Portada
METAR-TAF:

METAR-TAF

Aeroports :

Talara, Perú

latitud: 04-34S, longitud: 081-15W, altitud: 85 m

Observació

L'informe es va fer fa 13 hores i 39 minuts, a les 19:00 UTC
Vent 18 kt del Sud
Temperatura 23°C
Humitat 65%
Pressió 1011 hPa
Visibilitat 10 km o més
sense núvols per sota de 1500 mi sense presència de cumulonimbus.

METAR: SPYL 011900Z 17018KT CAVOK 23/16 Q1011 RMK BIRD HAZARD RWY 17/35 PP000

Hora: 03:39 (08:39 UTC)

Pronòstic

L'informe es va fer fa 21 hores i 58 minuts, a les 10:41 UTC
Pronòstic vàlid del 01 a les 12 UTC al 02 a les 12 UTC
Vent 19 kt del Sud-Est
Visibilitat 10 km o més
sense núvols per sota de 1500 mi sense presència de cumulonimbus.
A partir de les 01 a les 1900 UTC
Vent 12 kt del Sud/Sud-Oest
Visibilitat 10 km o més
sense núvols per sota de 1500 mi sense presència de cumulonimbus.

TAF: SPYL 011041Z 0112/0212 14019KT CAVOK TX28/0119Z TN17/0211Z FM011900 20012KT CAVOK

Observacions i pronòstics meteorològics de més de 4000 aeroports (METAR i TAF).

Les estacions disponibles són els punts grocs i vermells al mapa.

Posi el ratolí al punt desitjat per veure el nom de l'estació.

Feu clic per veure les observacions i els pronòstics meteorològics.

Per canviar el mapa: feu clic els botons verds amb una creu de color negre per apropar; al botó verd amb un guió per allunyar la imatge; o en les fletxes verdes per a mapes adjacents.


METAR-TAF: